sensor_id;sensor_type;location;lat;lon;timestamp;pressure;altitude;pressure_sealevel;temperature;humidity
61010;BME280;46897;55.340;86.082;2022-12-29T00:00:23;101193.81;;;-10.12;80.75
61010;BME280;46897;55.340;86.082;2022-12-29T00:02:52;101266.56;;;-9.77;80.51
61010;BME280;46897;55.340;86.082;2022-12-29T00:05:23;101165.63;;;-10.60;80.63
61010;BME280;46897;55.340;86.082;2022-12-29T00:07:52;101181.84;;;-10.44;80.41
61010;BME280;46897;55.340;86.082;2022-12-29T00:10:21;101100.25;;;-10.70;80.11
61010;BME280;46897;55.340;86.082;2022-12-29T00:12:51;101271.00;;;-9.75;80.53
61010;BME280;46897;55.340;86.082;2022-12-29T00:15:38;101360.19;;;-9.21;80.76
61010;BME280;46897;55.340;86.082;2022-12-29T00:18:08;101175.94;;;-10.27;80.28
61010;BME280;46897;55.340;86.082;2022-12-29T00:20:38;101414.66;;;-9.11;80.35
61010;BME280;46897;55.340;86.082;2022-12-29T00:23:25;101113.53;;;-10.60;80.06
61010;BME280;46897;55.340;86.082;2022-12-29T00:26:13;101276.16;;;-9.58;80.24
61010;BME280;46897;55.340;86.082;2022-12-29T00:29:01;101400.47;;;-9.04;80.32
61010;BME280;46897;55.340;86.082;2022-12-29T00:31:48;101392.84;;;-9.02;80.55
61010;BME280;46897;55.340;86.082;2022-12-29T00:34:35;101353.78;;;-9.30;79.98
61010;BME280;46897;55.340;86.082;2022-12-29T00:37:21;101402.22;;;-9.19;80.33
61010;BME280;46897;55.340;86.082;2022-12-29T00:40:12;101399.84;;;-9.00;80.39
61010;BME280;46897;55.340;86.082;2022-12-29T00:43:00;101215.00;;;-10.15;80.46
61010;BME280;46897;55.340;86.082;2022-12-29T00:45:46;101350.56;;;-9.25;80.12
61010;BME280;46897;55.340;86.082;2022-12-29T00:48:17;101386.03;;;-9.18;80.40
61010;BME280;46897;55.340;86.082;2022-12-29T00:51:07;101195.06;;;-10.20;79.95
61010;BME280;46897;55.340;86.082;2022-12-29T00:53:35;101266.00;;;-9.88;80.12
61010;BME280;46897;55.340;86.082;2022-12-29T00:56:04;101251.53;;;-10.02;80.39
61010;BME280;46897;55.340;86.082;2022-12-29T00:58:34;101212.44;;;-10.15;80.17
61010;BME280;46897;55.340;86.082;2022-12-29T01:01:04;101386.16;;;-9.32;80.28
61010;BME280;46897;55.340;86.082;2022-12-29T01:03:36;101358.88;;;-9.46;80.35
61010;BME280;46897;55.340;86.082;2022-12-29T01:06:07;101383.97;;;-9.40;80.35
61010;BME280;46897;55.340;86.082;2022-12-29T01:08:37;101351.75;;;-9.66;80.54
61010;BME280;46897;55.340;86.082;2022-12-29T01:11:08;101240.38;;;-10.19;79.80
61010;BME280;46897;55.340;86.082;2022-12-29T01:13:36;101215.75;;;-10.49;80.06
61010;BME280;46897;55.340;86.082;2022-12-29T01:16:06;101378.00;;;-9.56;80.13
61010;BME280;46897;55.340;86.082;2022-12-29T01:18:37;101323.63;;;-9.96;80.42
61010;BME280;46897;55.340;86.082;2022-12-29T01:21:06;101373.22;;;-9.64;80.30
61010;BME280;46897;55.340;86.082;2022-12-29T01:23:35;101188.91;;;-10.70;80.40
61010;BME280;46897;55.340;86.082;2022-12-29T01:26:12;101350.13;;;-9.81;80.56
61010;BME280;46897;55.340;86.082;2022-12-29T01:28:44;101325.84;;;-10.17;80.19
61010;BME280;46897;55.340;86.082;2022-12-29T01:31:14;101224.91;;;-10.82;79.85
61010;BME280;46897;55.340;86.082;2022-12-29T01:33:45;101368.69;;;-9.85;80.28
61010;BME280;46897;55.340;86.082;2022-12-29T01:36:16;101413.88;;;-9.56;80.33
61010;BME280;46897;55.340;86.082;2022-12-29T01:38:45;101238.31;;;-10.71;80.37
61010;BME280;46897;55.340;86.082;2022-12-29T01:41:16;101367.19;;;-9.96;80.24
61010;BME280;46897;55.340;86.082;2022-12-29T01:43:47;101218.09;;;-10.66;80.41
61010;BME280;46897;55.340;86.082;2022-12-29T01:46:24;101276.19;;;-10.65;80.17
61010;BME280;46897;55.340;86.082;2022-12-29T01:49:02;101278.28;;;-10.43;80.53
61010;BME280;46897;55.340;86.082;2022-12-29T01:51:36;101322.22;;;-10.21;80.25
61010;BME280;46897;55.340;86.082;2022-12-29T01:54:09;101412.28;;;-9.69;80.21
61010;BME280;46897;55.340;86.082;2022-12-29T01:56:40;101341.81;;;-10.06;80.07
61010;BME280;46897;55.340;86.082;2022-12-29T01:59:14;101480.50;;;-9.41;80.32
61010;BME280;46897;55.340;86.082;2022-12-29T02:01:44;101501.19;;;-9.38;80.39
61010;BME280;46897;55.340;86.082;2022-12-29T02:04:15;101355.63;;;-10.34;80.08
61010;BME280;46897;55.340;86.082;2022-12-29T02:06:47;101309.31;;;-10.82;80.16
61010;BME280;46897;55.340;86.082;2022-12-29T02:09:19;101276.88;;;-10.83;80.26
61010;BME280;46897;55.340;86.082;2022-12-29T02:11:49;101290.88;;;-10.76;80.22
61010;BME280;46897;55.340;86.082;2022-12-29T02:14:19;101508.09;;;-9.66;80.17
61010;BME280;46897;55.340;86.082;2022-12-29T02:17:01;101310.38;;;-10.78;80.59
61010;BME280;46897;55.340;86.082;2022-12-29T02:20:14;101299.28;;;-11.07;79.72
61010;BME280;46897;55.340;86.082;2022-12-29T02:23:13;101402.81;;;-10.59;79.94
61010;BME280;46897;55.340;86.082;2022-12-29T02:29:14;101258.59;;;-11.74;80.04
61010;BME280;46897;55.340;86.082;2022-12-29T02:31:50;101523.66;;;-10.06;80.17
61010;BME280;46897;55.340;86.082;2022-12-29T02:34:22;101508.91;;;-10.11;80.47
61010;BME280;46897;55.340;86.082;2022-12-29T02:37:02;101428.75;;;-10.68;80.01
61010;BME280;46897;55.340;86.082;2022-12-29T02:39:38;101504.00;;;-10.51;80.42
61010;BME280;46897;55.340;86.082;2022-12-29T02:42:13;101248.25;;;-11.90;79.91
61010;BME280;46897;55.340;86.082;2022-12-29T02:44:52;101287.75;;;-11.57;80.04
61010;BME280;46897;55.340;86.082;2022-12-29T02:47:33;101491.72;;;-10.41;80.14
61010;BME280;46897;55.340;86.082;2022-12-29T02:50:08;101404.72;;;-10.98;80.26
61010;BME280;46897;55.340;86.082;2022-12-29T02:52:44;101430.84;;;-10.89;80.35
61010;BME280;46897;55.340;86.082;2022-12-29T02:55:17;101518.44;;;-10.23;80.23
61010;BME280;46897;55.340;86.082;2022-12-29T02:57:48;101525.31;;;-10.22;80.12
61010;BME280;46897;55.340;86.082;2022-12-29T03:00:17;101518.94;;;-10.29;79.87
61010;BME280;46897;55.340;86.082;2022-12-29T03:03:04;101504.06;;;-10.49;79.70
61010;BME280;46897;55.340;86.082;2022-12-29T03:06:02;101358.00;;;-11.37;79.77
61010;BME280;46897;55.340;86.082;2022-12-29T03:08:43;101313.84;;;-11.48;79.35
61010;BME280;46897;55.340;86.082;2022-12-29T03:11:13;101310.44;;;-11.61;79.67
61010;BME280;46897;55.340;86.082;2022-12-29T03:14:00;101495.91;;;-10.57;79.62
61010;BME280;46897;55.340;86.082;2022-12-29T03:16:50;101474.47;;;-10.59;79.18
61010;BME280;46897;55.340;86.082;2022-12-29T03:19:27;101557.09;;;-10.18;79.58
61010;BME280;46897;55.340;86.082;2022-12-29T03:22:00;101418.69;;;-11.06;78.66
61010;BME280;46897;55.340;86.082;2022-12-29T03:24:49;101542.66;;;-10.18;79.34
61010;BME280;46897;55.340;86.082;2022-12-29T03:27:22;101480.78;;;-10.67;78.54
61010;BME280;46897;55.340;86.082;2022-12-29T03:29:57;101551.91;;;-10.48;78.89
61010;BME280;46897;55.340;86.082;2022-12-29T03:32:32;101462.63;;;-10.85;78.64
61010;BME280;46897;55.340;86.082;2022-12-29T03:35:05;101375.47;;;-11.16;78.60
61010;BME280;46897;55.340;86.082;2022-12-29T03:37:39;101449.81;;;-10.72;78.69
61010;BME280;46897;55.340;86.082;2022-12-29T03:40:10;101395.34;;;-10.97;78.83
61010;BME280;46897;55.340;86.082;2022-12-29T03:42:41;101361.09;;;-11.14;78.62
61010;BME280;46897;55.340;86.082;2022-12-29T03:45:11;101477.50;;;-10.51;78.67
61010;BME280;46897;55.340;86.082;2022-12-29T03:47:40;101532.63;;;-10.28;78.49
61010;BME280;46897;55.340;86.082;2022-12-29T03:50:13;101543.53;;;-10.02;78.17
61010;BME280;46897;55.340;86.082;2022-12-29T03:52:44;101303.50;;;-11.36;78.38
61010;BME280;46897;55.340;86.082;2022-12-29T03:55:13;101459.00;;;-10.60;78.54
61010;BME280;46897;55.340;86.082;2022-12-29T03:57:44;101583.25;;;-9.67;78.73
61010;BME280;46897;55.340;86.082;2022-12-29T04:00:14;101599.13;;;-9.58;77.60
61010;BME280;46897;55.340;86.082;2022-12-29T04:02:44;101585.19;;;-9.63;78.05
61010;BME280;46897;55.340;86.082;2022-12-29T04:05:15;101579.88;;;-9.66;77.50
61010;BME280;46897;55.340;86.082;2022-12-29T04:07:44;101593.13;;;-9.59;77.41
61010;BME280;46897;55.340;86.082;2022-12-29T04:10:13;101596.31;;;-9.63;77.09
61010;BME280;46897;55.340;86.082;2022-12-29T04:12:43;101567.91;;;-9.81;77.52
61010;BME280;46897;55.340;86.082;2022-12-29T04:15:13;101595.94;;;-9.69;77.17
61010;BME280;46897;55.340;86.082;2022-12-29T04:17:44;101605.13;;;-9.73;76.79
61010;BME280;46897;55.340;86.082;2022-12-29T04:20:15;101586.88;;;-9.92;77.50
61010;BME280;46897;55.340;86.082;2022-12-29T04:23:02;101610.78;;;-9.78;77.29
61010;BME280;46897;55.340;86.082;2022-12-29T04:25:31;101607.22;;;-9.80;76.75
61010;BME280;46897;55.340;86.082;2022-12-29T04:28:00;101618.19;;;-9.83;76.90
61010;BME280;46897;55.340;86.082;2022-12-29T04:30:30;101624.91;;;-9.85;77.60
61010;BME280;46897;55.340;86.082;2022-12-29T04:33:00;101587.44;;;-10.11;77.06
61010;BME280;46897;55.340;86.082;2022-12-29T04:35:31;101611.72;;;-10.04;77.34
61010;BME280;46897;55.340;86.082;2022-12-29T04:38:00;101635.66;;;-9.91;77.16
61010;BME280;46897;55.340;86.082;2022-12-29T04:40:29;101616.28;;;-10.00;76.93
61010;BME280;46897;55.340;86.082;2022-12-29T04:42:59;101638.13;;;-9.92;77.64
61010;BME280;46897;55.340;86.082;2022-12-29T04:45:29;101624.13;;;-9.97;77.31
61010;BME280;46897;55.340;86.082;2022-12-29T04:47:58;101637.91;;;-9.95;77.18
61010;BME280;46897;55.340;86.082;2022-12-29T04:50:27;101645.59;;;-9.95;76.37
61010;BME280;46897;55.340;86.082;2022-12-29T04:52:58;101631.66;;;-10.00;76.82
61010;BME280;46897;55.340;86.082;2022-12-29T04:55:27;101646.00;;;-10.02;77.23
61010;BME280;46897;55.340;86.082;2022-12-29T04:57:56;101655.84;;;-9.95;76.87
61010;BME280;46897;55.340;86.082;2022-12-29T05:00:25;101624.78;;;-10.15;76.57
61010;BME280;46897;55.340;86.082;2022-12-29T05:02:55;101640.88;;;-10.02;76.44
61010;BME280;46897;55.340;86.082;2022-12-29T05:05:24;101655.84;;;-9.95;76.84
61010;BME280;46897;55.340;86.082;2022-12-29T05:07:53;101645.03;;;-10.04;76.67
61010;BME280;46897;55.340;86.082;2022-12-29T05:10:24;101668.16;;;-9.90;76.05
61010;BME280;46897;55.340;86.082;2022-12-29T05:12:53;101666.56;;;-9.88;76.26
61010;BME280;46897;55.340;86.082;2022-12-29T05:15:22;101670.22;;;-9.84;76.86
61010;BME280;46897;55.340;86.082;2022-12-29T05:17:51;101658.47;;;-9.80;76.22
61010;BME280;46897;55.340;86.082;2022-12-29T05:20:21;101653.09;;;-9.85;76.40
61010;BME280;46897;55.340;86.082;2022-12-29T05:22:50;101660.34;;;-9.78;76.50
61010;BME280;46897;55.340;86.082;2022-12-29T05:25:19;101667.72;;;-9.69;76.43
61010;BME280;46897;55.340;86.082;2022-12-29T05:27:49;101661.50;;;-9.73;76.74
61010;BME280;46897;55.340;86.082;2022-12-29T05:30:19;101673.31;;;-9.61;76.00
61010;BME280;46897;55.340;86.082;2022-12-29T05:32:48;101675.38;;;-9.56;76.27
61010;BME280;46897;55.340;86.082;2022-12-29T05:35:17;101664.81;;;-9.60;76.16
61010;BME280;46897;55.340;86.082;2022-12-29T05:37:46;101679.97;;;-9.50;75.41
61010;BME280;46897;55.340;86.082;2022-12-29T05:40:15;101687.75;;;-9.49;75.77
61010;BME280;46897;55.340;86.082;2022-12-29T05:42:45;101675.63;;;-9.51;76.06
61010;BME280;46897;55.340;86.082;2022-12-29T05:45:15;101693.16;;;-9.44;75.43
61010;BME280;46897;55.340;86.082;2022-12-29T05:47:45;101681.72;;;-9.49;75.68
61010;BME280;46897;55.340;86.082;2022-12-29T05:50:14;101668.34;;;-9.58;75.98
61010;BME280;46897;55.340;86.082;2022-12-29T05:52:44;101682.34;;;-9.53;75.76
61010;BME280;46897;55.340;86.082;2022-12-29T05:55:13;101671.31;;;-9.52;75.68
61010;BME280;46897;55.340;86.082;2022-12-29T05:57:44;101663.78;;;-9.49;75.78
61010;BME280;46897;55.340;86.082;2022-12-29T06:00:16;101612.00;;;-9.72;75.72
61010;BME280;46897;55.340;86.082;2022-12-29T06:02:45;101682.13;;;-9.28;76.29
61010;BME280;46897;55.340;86.082;2022-12-29T06:05:15;101697.28;;;-9.18;75.84
61010;BME280;46897;55.340;86.082;2022-12-29T06:07:44;101647.16;;;-9.41;76.03
61010;BME280;46897;55.340;86.082;2022-12-29T06:10:14;101665.69;;;-9.32;76.07
61010;BME280;46897;55.340;86.082;2022-12-29T06:12:43;101701.25;;;-9.08;75.77
61010;BME280;46897;55.340;86.082;2022-12-29T06:15:12;101698.28;;;-9.01;75.45
61010;BME280;46897;55.340;86.082;2022-12-29T06:17:44;101700.22;;;-8.97;75.55
61010;BME280;46897;55.340;86.082;2022-12-29T06:20:13;101670.13;;;-9.14;75.61
61010;BME280;46897;55.340;86.082;2022-12-29T06:22:43;101688.97;;;-8.99;75.37
61010;BME280;46897;55.340;86.082;2022-12-29T06:25:12;101692.09;;;-8.90;74.99
61010;BME280;46897;55.340;86.082;2022-12-29T06:27:42;101695.44;;;-8.76;75.73
61010;BME280;46897;55.340;86.082;2022-12-29T06:30:12;101666.25;;;-8.93;75.41
61010;BME280;46897;55.340;86.082;2022-12-29T06:32:45;101709.06;;;-8.62;75.24
61010;BME280;46897;55.340;86.082;2022-12-29T06:35:14;101711.19;;;-8.55;75.68
61010;BME280;46897;55.340;86.082;2022-12-29T06:37:43;101711.53;;;-8.48;74.85
61010;BME280;46897;55.340;86.082;2022-12-29T06:40:13;101698.81;;;-8.47;74.91
61010;BME280;46897;55.340;86.082;2022-12-29T06:42:42;101713.00;;;-8.37;74.95
61010;BME280;46897;55.340;86.082;2022-12-29T06:45:11;101708.06;;;-8.34;75.06
61010;BME280;46897;55.340;86.082;2022-12-29T06:47:40;101689.41;;;-8.46;74.76
61010;BME280;46897;55.340;86.082;2022-12-29T06:50:11;101717.53;;;-8.33;74.61
61010;BME280;46897;55.340;86.082;2022-12-29T06:52:40;101687.66;;;-8.47;74.73
61010;BME280;46897;55.340;86.082;2022-12-29T06:55:09;101728.06;;;-8.28;75.01
61010;BME280;46897;55.340;86.082;2022-12-29T06:57:38;101720.44;;;-8.27;75.33
61010;BME280;46897;55.340;86.082;2022-12-29T07:00:09;101710.00;;;-8.30;75.04
61010;BME280;46897;55.340;86.082;2022-12-29T07:02:38;101716.88;;;-8.29;74.54
61010;BME280;46897;55.340;86.082;2022-12-29T07:05:08;101721.25;;;-8.28;74.98
61010;BME280;46897;55.340;86.082;2022-12-29T07:07:39;101727.88;;;-8.17;74.36
61010;BME280;46897;55.340;86.082;2022-12-29T07:10:08;101719.34;;;-8.16;74.78
61010;BME280;46897;55.340;86.082;2022-12-29T07:12:37;101718.91;;;-8.08;74.38
61010;BME280;46897;55.340;86.082;2022-12-29T07:15:07;101721.63;;;-8.05;74.51
61010;BME280;46897;55.340;86.082;2022-12-29T07:17:36;101723.31;;;-8.06;74.52
61010;BME280;46897;55.340;86.082;2022-12-29T07:20:07;101737.22;;;-8.02;74.43
61010;BME280;46897;55.340;86.082;2022-12-29T07:22:38;101729.50;;;-8.02;73.82
61010;BME280;46897;55.340;86.082;2022-12-29T07:25:08;101727.13;;;-7.99;74.42
61010;BME280;46897;55.340;86.082;2022-12-29T07:27:37;101728.97;;;-7.97;74.21
61010;BME280;46897;55.340;86.082;2022-12-29T07:30:07;101733.56;;;-7.91;74.26
61010;BME280;46897;55.340;86.082;2022-12-29T07:32:36;101718.94;;;-7.92;74.42
61010;BME280;46897;55.340;86.082;2022-12-29T07:35:06;101728.84;;;-7.83;74.00
61010;BME280;46897;55.340;86.082;2022-12-29T07:37:35;101717.97;;;-7.94;74.39
61010;BME280;46897;55.340;86.082;2022-12-29T07:40:08;101721.13;;;-7.83;74.16
61010;BME280;46897;55.340;86.082;2022-12-29T07:42:37;101717.69;;;-7.84;73.94
61010;BME280;46897;55.340;86.082;2022-12-29T07:45:08;101729.25;;;-7.76;74.53
61010;BME280;46897;55.340;86.082;2022-12-29T07:47:37;101735.47;;;-7.72;73.89
61010;BME280;46897;55.340;86.082;2022-12-29T07:50:07;101668.94;;;-8.14;73.77
61010;BME280;46897;55.340;86.082;2022-12-29T07:52:36;101740.75;;;-7.69;74.15
61010;BME280;46897;55.340;86.082;2022-12-29T07:55:08;101733.84;;;-7.70;73.92
61010;BME280;46897;55.340;86.082;2022-12-29T07:57:38;101706.25;;;-7.89;74.39
61010;BME280;46897;55.340;86.082;2022-12-29T08:00:08;101742.25;;;-7.73;74.19
61010;BME280;46897;55.340;86.082;2022-12-29T08:02:38;101739.53;;;-7.76;73.74
61010;BME280;46897;55.340;86.082;2022-12-29T08:05:07;101739.38;;;-7.79;74.33
61010;BME280;46897;55.340;86.082;2022-12-29T08:07:37;101731.88;;;-7.91;74.76
61010;BME280;46897;55.340;86.082;2022-12-29T08:10:08;101748.16;;;-7.90;74.63
61010;BME280;46897;55.340;86.082;2022-12-29T08:12:39;101719.06;;;-8.05;74.40
61010;BME280;46897;55.340;86.082;2022-12-29T08:15:10;101747.19;;;-7.92;73.83
61010;BME280;46897;55.340;86.082;2022-12-29T08:17:39;101742.69;;;-7.96;74.51
61010;BME280;46897;55.340;86.082;2022-12-29T08:20:09;101749.97;;;-8.04;74.20
61010;BME280;46897;55.340;86.082;2022-12-29T08:22:39;101748.03;;;-8.08;74.62
61010;BME280;46897;55.340;86.082;2022-12-29T08:25:10;101741.75;;;-8.13;73.88
61010;BME280;46897;55.340;86.082;2022-12-29T08:27:39;101744.94;;;-8.17;73.90
61010;BME280;46897;55.340;86.082;2022-12-29T08:30:09;101749.75;;;-8.23;74.31
61010;BME280;46897;55.340;86.082;2022-12-29T08:32:38;101751.09;;;-8.30;74.25
61010;BME280;46897;55.340;86.082;2022-12-29T08:35:08;101735.63;;;-8.46;74.67
61010;BME280;46897;55.340;86.082;2022-12-29T08:37:37;101759.72;;;-8.44;74.82
61010;BME280;46897;55.340;86.082;2022-12-29T08:40:09;101761.16;;;-8.49;74.77
61010;BME280;46897;55.340;86.082;2022-12-29T08:42:38;101740.69;;;-8.63;74.75
61010;BME280;46897;55.340;86.082;2022-12-29T08:45:08;101758.06;;;-8.59;74.59
61010;BME280;46897;55.340;86.082;2022-12-29T08:47:38;101749.91;;;-8.66;74.53
61010;BME280;46897;55.340;86.082;2022-12-29T08:50:07;101755.66;;;-8.71;74.63
61010;BME280;46897;55.340;86.082;2022-12-29T08:52:36;101752.03;;;-8.74;75.12
61010;BME280;46897;55.340;86.082;2022-12-29T08:55:06;101668.66;;;-9.39;74.78
61010;BME280;46897;55.340;86.082;2022-12-29T08:57:37;101767.31;;;-8.76;74.32
61010;BME280;46897;55.340;86.082;2022-12-29T09:00:07;101764.50;;;-8.80;74.33
61010;BME280;46897;55.340;86.082;2022-12-29T09:02:36;101767.38;;;-8.89;74.27
61010;BME280;46897;55.340;86.082;2022-12-29T09:05:07;101778.38;;;-8.92;74.44
61010;BME280;46897;55.340;86.082;2022-12-29T09:07:37;101779.66;;;-8.98;74.64
61010;BME280;46897;55.340;86.082;2022-12-29T09:10:06;101787.88;;;-9.04;74.59
61010;BME280;46897;55.340;86.082;2022-12-29T09:12:37;101750.59;;;-9.27;74.73
61010;BME280;46897;55.340;86.082;2022-12-29T09:15:08;101712.03;;;-9.57;74.07
61010;BME280;46897;55.340;86.082;2022-12-29T09:17:37;101796.63;;;-9.15;74.79
61010;BME280;46897;55.340;86.082;2022-12-29T09:20:14;101792.13;;;-9.19;74.00
61010;BME280;46897;55.340;86.082;2022-12-29T09:22:45;101792.88;;;-9.20;74.47
61010;BME280;46897;55.340;86.082;2022-12-29T09:25:15;101772.22;;;-9.37;73.92
61010;BME280;46897;55.340;86.082;2022-12-29T09:27:45;101794.09;;;-9.28;74.80
61010;BME280;46897;55.340;86.082;2022-12-29T09:30:15;101793.91;;;-9.32;75.08
61010;BME280;46897;55.340;86.082;2022-12-29T09:32:44;101791.56;;;-9.42;75.10
61010;BME280;46897;55.340;86.082;2022-12-29T09:35:21;101794.75;;;-9.46;74.92
61010;BME280;46897;55.340;86.082;2022-12-29T09:37:50;101799.88;;;-9.46;75.16
61010;BME280;46897;55.340;86.082;2022-12-29T09:40:28;101779.19;;;-9.62;74.65
61010;BME280;46897;55.340;86.082;2022-12-29T09:43:27;101793.47;;;-9.66;75.03
61010;BME280;46897;55.340;86.082;2022-12-29T09:46:02;101801.59;;;-9.73;74.83
61010;BME280;46897;55.340;86.082;2022-12-29T09:48:43;101764.56;;;-10.05;74.90
